ESOW

Stockholm Västerås Airport

Stockholm / Västerås, Sweden
METAR ESOW 201650Z AUTO 25003KT 210V280 9999 OVC009/// 07/04 Q1022
Observed Flight Rules
Oct-20 @ 16:50 UTC (21 minutes ago) Instrument Flight Rules
Wind Visibility Clouds
250° at 3 knots 10,000+ meters
  • Overcast at 900' AGL
Temperatures Readings
Current 7°C / 45°F
Dewpoint 4°C / 39°F
Humidity 81%
Altimeter 30.18" Hg
Pressure 1022 hPa
Elevation 31
METAR ESOW 201650Z AUTO 25003KT 210V280 9999 OVC009/// 07/04 Q1022
Observed Flight Rules
Oct-20 @ 16:50 UTC
(21 minutes ago)
IFR
Wind Visibility
250° at 3 knots 10,000+ meters
Clouds
  • Overcast at 900' AGL
Temperature Dewpoint
7°C / 45°F 4°C / 39°F
Humidity Altimeter Pressure
81% 30.18" Hg 1022 hPa